Mcbride, Canada
Current Conditions -  °F | °C
As of 12:00 AM on Friday 21 Nov 2014 (Local Time) from CYQZ Reporting Station
Overcast Overcast  
Wind Chill: 36°   Ceiling: 7000
Heat Index: 41°   Visibility: 9mi
Dew Point: 32°   Wind: 7mph
Humidity: 70%   Direction: 170°S
Pressure: 29.65"   Gusts: NA
Location:  53.3°N, 120.17°W
Report Text: CYQZ 210800Z AUTO 17006KT 130V200 9SM OVC070 05/M00 A2965 RMK SLP061
Loading
Personal Weather Stations






























Interactive Weather Map New forecast layout! Learn more

10-Day Weather Forecast

Advertisements
Track Severe Weather on mobile